Time;durP1;ratioP1;P1;durP2;ratioP2;P2;SDS_P1;SDS_P2;PMS_P1;PMS_P2;Temp;Humidity;BMP_temperature;BMP_pressure;BME280_temperature;BME280_humidity;BME280_pressure;Samples;Min_cycle;Max_cycle;Signal;HPM_P1;HPM_P2
2022/12/02 00:02:29;;;;;;;50.03;28.77;;;;;;;-0.03;79.34;101974.45;1761684;80;25765;-82
2022/12/02 00:05:12;;;;;;;54.20;27.82;;;;;;;-0.04;79.58;101969.25;1769882;80;25719;-81
2022/12/02 00:07:38;;;;;;;54.08;28.47;;;;;;;-0.05;79.65;101975.01;1750951;80;27608;-81
2022/12/02 00:10:31;;;;;;;53.35;28.45;;;;;;;-0.02;79.87;101980.55;1768493;80;25890;-81
2022/12/02 00:13:22;;;;;;;54.65;28.60;;;;;;;-0.01;79.80;101975.22;1749608;80;26452;-81
2022/12/02 00:16:03;;;;;;;;;;;;;;;0.02;79.80;101976.83;1769058;80;25821;-81
2022/12/02 00:18:30;;;;;;;47.03;23.92;;;;;;;-0.03;79.43;101974.45;1772142;80;26231;-81
2022/12/02 00:20:56;;;;;;;54.33;27.77;;;;;;;-0.13;79.45;101967.16;1768479;79;28263;-81
2022/12/02 00:23:23;;;;;;;55.40;29.55;;;;;;;-0.17;79.68;101976.98;1769791;79;26281;-82
2022/12/02 00:25:52;;;;;;;57.10;29.07;;;;;;;-0.15;79.79;101969.84;1769250;79;25748;-83
2022/12/02 00:28:19;;;;;;;57.53;29.40;;;;;;;-0.14;79.74;101975.52;1770005;77;25841;-82
2022/12/02 00:30:46;;;;;;;51.20;27.90;;;;;;;-0.17;79.70;101974.84;1765341;79;26010;-82
2022/12/02 00:33:14;;;;;;;47.70;27.13;;;;;;;-0.20;79.83;101974.54;1767692;80;28683;-82
2022/12/02 00:35:40;;;;;;;52.10;27.62;;;;;;;-0.19;79.87;101976.68;1747809;81;25804;-81
2022/12/02 00:38:06;;;;;;;59.18;29.30;;;;;;;-0.21;80.03;101978.09;1756658;79;26445;-82
2022/12/02 00:40:33;;;;;;;56.10;29.70;;;;;;;-0.18;80.17;101974.45;1756025;79;26537;-82
2022/12/02 00:46:30;;;;;;;53.87;28.17;;;;;;;-0.12;80.30;101976.73;1752245;79;25759;-82
2022/12/02 00:48:12;;;;;;;50.58;28.40;;;;;;;-0.14;79.87;101974.66;1747504;81;26141;-82
2022/12/02 00:50:38;;;;;;;52.00;28.35;;;;;;;-0.15;80.08;101969.02;1749820;80;25635;-81
2022/12/02 00:53:04;;;;;;;49.65;27.82;;;;;;;-0.15;80.05;101974.29;1772793;78;26112;-83
2022/12/02 00:55:31;;;;;;;45.43;26.55;;;;;;;-0.16;80.11;101968.16;1745754;80;25925;-82
2022/12/02 00:57:57;;;;;;;48.28;25.57;;;;;;;-0.21;80.05;101968.87;1757371;79;27416;-82
2022/12/02 01:00:24;;;;;;;52.65;27.82;;;;;;;-0.23;80.14;101965.94;1767488;80;26319;-81
2022/12/02 01:02:50;;;;;;;53.95;28.95;;;;;;;-0.23;80.23;101968.11;1759967;79;25855;-82
2022/12/02 01:05:19;;;;;;;54.58;29.07;;;;;;;-0.20;80.34;101968.42;1749261;80;25983;-82
2022/12/02 01:07:45;;;;;;;50.63;27.90;;;;;;;-0.19;80.43;101966.15;1746412;79;26394;-81
2022/12/02 01:10:12;;;;;;;52.53;28.23;;;;;;;-0.18;80.27;101971.35;1757465;80;27455;-83
2022/12/02 01:12:38;;;;;;;51.90;28.07;;;;;;;-0.20;80.34;101967.09;1763926;80;25867;-81
2022/12/02 01:15:05;;;;;;;51.40;27.55;;;;;;;-0.19;80.47;101958.25;1745635;79;25818;-81
2022/12/02 01:17:32;;;;;;;51.45;28.42;;;;;;;-0.18;80.47;101959.50;1751766;79;26567;-81
2022/12/02 01:20:00;;;;;;;50.58;28.32;;;;;;;-0.17;80.45;101960.36;1760155;80;25882;-81
2022/12/02 01:22:26;;;;;;;51.37;26.20;;;;;;;-0.17;80.48;101959.05;1756520;79;28300;-82
2022/12/02 01:24:52;;;;;;;49.23;27.02;;;;;;;-0.16;80.39;101956.31;1759477;79;25309;-81
2022/12/02 01:27:19;;;;;;;48.42;26.30;;;;;;;-0.17;80.20;101961.67;1752098;80;25768;-81
2022/12/02 01:29:45;;;;;;;49.67;26.48;;;;;;;-0.25;79.98;101956.82;1733429;80;25799;-82
2022/12/02 01:32:11;;;;;;;45.23;24.90;;;;;;;-0.30;80.10;101959.34;1736574;81;25958;-81
2022/12/02 01:34:38;;;;;;;52.15;26.75;;;;;;;-0.32;80.19;101960.72;1745087;80;28227;-82
2022/12/02 01:37:04;;;;;;;51.88;27.20;;;;;;;-0.34;80.23;101956.49;1743318;80;25896;-83
2022/12/02 01:39:32;;;;;;;51.55;28.00;;;;;;;-0.32;80.23;101962.52;1744651;80;26174;-81
2022/12/02 01:41:59;;;;;;;50.58;26.90;;;;;;;-0.34;80.31;101956.49;1755207;79;25787;-81
2022/12/02 01:44:26;;;;;;;50.00;27.17;;;;;;;-0.36;80.38;101956.55;1755395;80;25898;-80
2022/12/02 01:46:53;;;;;;;42.93;24.43;;;;;;;-0.34;80.59;101960.44;1744170;80;28319;-80
2022/12/02 01:49:20;;;;;;;43.50;25.00;;;;;;;-0.34;80.23;101959.13;1767606;79;25837;-81
2022/12/02 01:51:47;;;;;;;52.62;28.42;;;;;;;-0.40;80.32;101948.45;1760332;80;25797;-80
2022/12/02 01:54:14;;;;;;;45.40;25.32;;;;;;;-0.39;80.54;101948.84;1760873;79;26675;-80
2022/12/02 01:56:40;;;;;;;43.80;26.68;;;;;;;-0.36;80.59;101950.43;1743496;82;26108;-80
2022/12/02 01:59:12;;;;;;;45.05;25.88;;;;;;;-0.37;80.59;101948.75;1744574;80;28350;-82
2022/12/02 02:01:39;;;;;;;44.58;25.20;;;;;;;-0.36;80.58;101948.66;1755764;80;25760;-80
2022/12/02 02:04:06;;;;;;;51.63;26.02;;;;;;;-0.39;80.44;101954.56;1747705;81;25862;-81
2022/12/02 02:06:37;;;;;;;45.50;24.63;;;;;;;-0.40;80.63;101948.45;1746489;80;26168;-80
2022/12/02 02:09:06;;;;;;;47.05;26.35;;;;;;;-0.41;80.48;101945.91;1744095;81;25847;-81
2022/12/02 02:11:34;;;;;;;44.98;25.25;;;;;;;-0.44;80.51;101949.55;1746893;79;27470;-80
2022/12/02 02:14:04;;;;;;;49.25;28.23;;;;;;;-0.47;80.58;101951.02;1760357;80;26501;-81
2022/12/02 02:16:31;;;;;;;51.40;29.10;;;;;;;-0.47;80.83;101948.39;1748630;81;26206;-80
2022/12/02 02:18:58;;;;;;;43.05;24.67;;;;;;;-0.42;80.99;101949.45;1764331;79;26426;-81
2022/12/02 02:21:32;;;;;;;44.20;24.05;;;;;;;-0.41;80.62;101948.54;1757175;80;25816;-80
2022/12/02 02:23:58;;;;;;;46.18;24.85;;;;;;;-0.47;80.42;101951.52;1745326;79;27439;-81
2022/12/02 02:26:25;;;;;;;44.35;28.67;;;;;;;-0.51;80.46;101945.55;1741169;81;25817;-80
2022/12/02 02:28:52;;;;;;;47.53;27.10;;;;;;;-0.51;80.61;101938.97;1752326;80;25607;-80
2022/12/02 02:31:18;;;;;;;44.60;26.68;;;;;;;-0.47;80.80;101944.44;1738472;80;25796;-80
2022/12/02 02:33:46;;;;;;;39.18;22.90;;;;;;;-0.49;80.51;101936.27;1744612;79;25865;-81
2022/12/02 02:36:12;;;;;;;46.00;25.88;;;;;;;-0.50;80.55;101937.19;1776993;79;27444;-81
2022/12/02 02:38:39;;;;;;;39.20;23.90;;;;;;;-0.51;80.47;101944.72;1764834;79;25832;-80
2022/12/02 02:41:07;;;;;;;40.50;24.00;;;;;;;-0.57;80.26;101937.98;1760535;79;25811;-80
2022/12/02 02:43:36;;;;;;;42.33;22.95;;;;;;;-0.60;80.24;101937.31;1756536;80;25780;-81
2022/12/02 02:46:02;;;;;;;41.77;24.25;;;;;;;-0.65;80.29;101936.70;1763783;80;25880;-82
2022/12/02 02:48:32;;;;;;;40.48;25.30;;;;;;;-0.64;80.45;101939.73;1768161;80;28847;-81
2022/12/02 02:51:00;;;;;;;39.45;22.65;;;;;;;-0.61;80.73;101939.55;1740828;80;25801;-81
2022/12/02 02:53:28;;;;;;;39.00;22.67;;;;;;;-0.59;80.58;101942.95;1768506;80;25765;-81
2022/12/02 02:55:55;;;;;;;39.33;23.55;;;;;;;-0.61;80.48;101940.41;1723582;80;25787;-81
2022/12/02 02:58:24;;;;;;;37.63;23.20;;;;;;;-0.59;80.47;101943.80;1769994;79;25832;-81
2022/12/02 03:01:08;;;;;;;40.73;24.07;;;;;;;-0.58;80.48;101932.36;1761994;80;27453;-82
2022/12/02 03:03:40;;;;;;;44.93;24.40;;;;;;;-0.55;80.46;101934.80;1765469;79;25840;-81
2022/12/02 03:06:09;;;;;;;32.53;20.12;;;;;;;-0.52;80.27;101938.59;1752986;79;25778;-80
2022/12/02 03:08:40;;;;;;;45.38;24.00;;;;;;;-0.57;79.91;101935.81;1752364;79;26483;-81
2022/12/02 03:11:07;;;;;;;;;;;;;;;-0.60;80.13;101936.86;1756556;81;25757;-81
2022/12/02 03:13:36;;;;;;;41.05;22.15;;;;;;;-0.58;80.09;101931.05;1756903;81;28349;-81
2022/12/02 03:16:07;;;;;;;36.53;21.15;;;;;;;-0.58;80.05;101939.39;1765774;79;26529;-82
2022/12/02 03:18:35;;;;;;;41.40;23.60;;;;;;;-0.62;79.93;101936.06;1747117;80;25774;-81
2022/12/02 03:21:02;;;;;;;38.30;22.73;;;;;;;-0.65;79.87;101933.61;1754336;79;26509;-81
2022/12/02 03:23:31;;;;;;;32.13;20.05;;;;;;;-0.67;79.67;101934.17;1744117;82;26086;-81
2022/12/02 03:25:58;;;;;;;36.85;19.82;;;;;;;-0.75;79.56;101927.16;1737631;80;27526;-81
2022/12/02 03:28:25;;;;;;;39.30;20.43;;;;;;;-0.80;79.67;101932.66;1759924;80;26471;-81
2022/12/02 03:30:52;;;;;;;35.05;21.77;;;;;;;-0.81;79.91;101926.14;1728448;81;25930;-82
2022/12/02 03:33:18;;;;;;;41.20;23.60;;;;;;;-0.78;80.07;101926.00;1749128;79;25787;-81
2022/12/02 03:35:45;;;;;;;34.15;18.67;;;;;;;-0.75;80.04;101928.47;1765559;80;26474;-81
2022/12/02 03:38:11;;;;;;;34.35;21.12;;;;;;;-0.79;79.58;101927.77;1767095;80;28674;-81
2022/12/02 03:40:38;;;;;;;36.73;20.90;;;;;;;-0.82;79.73;101928.41;1757642;80;25862;-80
2022/12/02 03:43:04;;;;;;;36.23;21.17;;;;;;;-0.81;79.75;101922.20;1777916;79;25965;-81
2022/12/02 03:45:32;;;;;;;36.77;21.65;;;;;;;-0.85;79.85;101928.10;1752631;80;25806;-81
2022/12/02 03:47:59;;;;;;;39.42;22.25;;;;;;;-0.83;79.88;101925.37;1765561;79;25824;-81
2022/12/02 03:50:26;;;;;;;34.25;19.73;;;;;;;-0.82;79.80;101923.15;1754076;80;27381;-80
2022/12/02 03:52:53;;;;;;;35.13;22.10;;;;;;;-0.85;79.66;101922.84;1768541;79;25941;-81
2022/12/02 03:55:20;;;;;;;31.25;19.50;;;;;;;-0.86;79.69;101920.30;1752729;79;25887;-81
2022/12/02 03:57:46;;;;;;;30.32;18.82;;;;;;;-0.84;79.85;101918.44;1763299;79;25827;-81
2022/12/02 04:00:14;;;;;;;33.70;20.02;;;;;;;-0.87;79.53;101912.02;1776551;79;25784;-82
2022/12/02 04:02:40;;;;;;;33.00;18.62;;;;;;;-0.90;79.54;101913.51;1744194;80;27448;-80
2022/12/02 04:05:07;;;;;;;35.13;20.60;;;;;;;-0.93;79.37;101918.92;1764709;79;25331;-80
2022/12/02 04:07:33;;;;;;;36.23;20.57;;;;;;;-0.99;79.20;101912.22;1768985;80;25761;-82
2022/12/02 04:10:00;;;;;;;33.73;20.45;;;;;;;-0.99;79.35;101908.27;1781696;78;25768;-82
2022/12/02 04:12:26;;;;;;;35.45;20.30;;;;;;;-0.97;79.52;101906.87;1765197;78;25984;-81
2022/12/02 04:14:52;;;;;;;30.25;19.10;;;;;;;-0.92;79.72;101909.62;1760494;79;27416;-81
2022/12/02 04:17:18;;;;;;;37.80;22.07;;;;;;;-0.90;79.50;101912.20;1754013;79;25701;-80
2022/12/02 04:19:45;;;;;;;34.08;20.17;;;;;;;-0.96;79.40;101909.41;1766625;80;25806;-81
2022/12/02 04:22:11;;;;;;;32.93;19.80;;;;;;;-0.98;79.53;101911.27;1751360;80;26365;-81
2022/12/02 04:24:37;;;;;;;37.00;19.75;;;;;;;-0.96;79.46;101908.55;1753226;79;26480;-81
2022/12/02 04:27:04;;;;;;;28.60;18.07;;;;;;;-0.98;79.36;101909.09;1745109;79;27447;-82
2022/12/02 04:29:30;;;;;;;34.95;20.37;;;;;;;-1.04;79.23;101903.71;1756248;81;25271;-81
2022/12/02 04:31:56;;;;;;;34.70;20.68;;;;;;;-1.07;79.38;101903.03;1762555;79;25835;-81
2022/12/02 04:34:22;;;;;;;37.28;21.25;;;;;;;-1.07;79.39;101905.17;1759957;80;26166;-81
2022/12/02 04:36:49;;;;;;;35.15;20.80;;;;;;;-1.06;79.51;101904.72;1767574;79;26428;-80
2022/12/02 04:39:15;;;;;;;33.48;19.95;;;;;;;-1.04;79.64;101904.17;1765774;79;27934;-81
2022/12/02 04:41:41;;;;;;;31.00;18.73;;;;;;;-0.98;79.57;101910.41;1770930;80;25892;-81
2022/12/02 04:44:08;;;;;;;35.88;20.57;;;;;;;-1.01;79.32;101907.51;1784965;79;26296;-81
2022/12/02 04:49:15;;;;;;;28.57;18.35;;;;;;;-0.98;79.35;101909.09;1763681;80;25684;-81
2022/12/02 04:51:41;;;;;;;35.83;21.10;;;;;;;-1.03;79.35;101908.52;1762519;80;26125;-82
2022/12/02 04:54:07;;;;;;;34.75;20.08;;;;;;;-1.01;79.50;101907.97;1745311;81;27419;-81
2022/12/02 04:56:33;;;;;;;34.60;19.85;;;;;;;-0.98;79.52;101906.47;1742766;81;25965;-81
2022/12/02 04:59:00;;;;;;;34.85;19.37;;;;;;;-1.00;79.21;101901.76;1754239;81;25797;-81
2022/12/02 05:01:26;;;;;;;29.85;18.57;;;;;;;-1.01;79.30;101898.77;1747231;81;26213;-81
2022/12/02 05:03:52;;;;;;;32.65;18.37;;;;;;;-1.06;79.09;101900.31;1761163;81;25867;-81
2022/12/02 05:06:19;;;;;;;33.53;20.17;;;;;;;-1.08;79.21;101911.37;1744388;81;27576;-81
2022/12/02 05:08:46;;;;;;;34.25;19.95;;;;;;;-1.11;78.97;101905.45;1743763;81;25493;-81
2022/12/02 05:11:12;;;;;;;33.40;18.87;;;;;;;-1.09;79.22;101914.10;1735264;81;25985;-80
2022/12/02 05:13:38;;;;;;;32.93;20.25;;;;;;;-1.07;79.12;101915.69;1745618;81;25955;-81
2022/12/02 05:16:05;;;;;;;51.63;25.37;;;;;;;-1.07;79.17;101919.64;1744928;81;25924;-81
2022/12/02 05:18:32;;;;;;;38.28;22.95;;;;;;;-1.01;79.27;101918.48;1750167;81;28253;-81
2022/12/02 05:20:58;;;;;;;50.90;25.10;;;;;;;-0.98;79.22;101911.73;1750072;81;25808;-82
2022/12/02 05:23:24;;;;;;;43.40;25.30;;;;;;;-0.98;79.08;101920.48;1751179;81;25807;-81
2022/12/02 05:25:50;;;;;;;52.43;26.45;;;;;;;-0.94;79.33;101926.44;1754389;81;26569;-81
2022/12/02 05:28:17;;;;;;;58.87;29.35;;;;;;;-0.89;79.30;101919.14;1751542;81;26299;-81
2022/12/02 05:30:44;;;;;;;48.15;24.05;;;;;;;-0.85;79.21;101916.72;1746092;81;28301;-81
2022/12/02 05:33:10;;;;;;;39.78;22.93;;;;;;;-0.86;78.92;101918.53;1744165;81;26355;-81
2022/12/02 05:35:36;;;;;;;35.15;22.48;;;;;;;-0.88;78.82;101919.53;1750355;81;25910;-82
2022/12/02 05:38:02;;;;;;;40.55;22.55;;;;;;;-0.88;78.82;101923.48;1748497;81;26031;-80
2022/12/02 05:40:29;;;;;;;41.90;24.23;;;;;;;-0.85;78.98;101920.21;1743265;81;26461;-80
2022/12/02 05:42:55;;;;;;;39.45;25.52;;;;;;;-0.83;78.90;101917.48;1748781;81;27449;-80
2022/12/02 05:45:22;;;;;;;39.00;24.23;;;;;;;-0.81;78.84;101926.14;1751350;81;26515;-81
2022/12/02 05:47:52;;;;;;;45.65;25.00;;;;;;;-0.81;78.68;101924.83;1746975;81;25939;-81
2022/12/02 05:50:20;;;;;;;59.53;28.73;;;;;;;-0.79;78.72;101922.96;1746943;81;26316;-81
2022/12/02 05:52:48;;;;;;;54.23;27.15;;;;;;;-0.78;78.84;101924.68;1750338;81;26279;-81
2022/12/02 05:55:19;;;;;;;40.78;22.75;;;;;;;-0.76;78.75;101924.13;1742201;81;27525;-81
2022/12/02 05:57:46;;;;;;;33.33;20.95;;;;;;;-0.78;78.43;101924.68;1745243;80;26058;-81
2022/12/02 06:00:20;;;;;;;34.98;18.82;;;;;;;-0.78;78.43;101924.68;1745161;81;25768;-81
2022/12/02 06:02:54;;;;;;;36.33;20.62;;;;;;;-0.80;78.29;101930.48;1740917;81;25837;-81
2022/12/02 06:05:25;;;;;;;40.23;22.60;;;;;;;-0.85;78.41;101930.73;1749767;80;25847;-80
2022/12/02 06:08:16;;;;;;;33.60;20.68;;;;;;;-0.86;78.62;101931.68;1738287;81;27455;-80
2022/12/02 06:10:50;;;;;;;45.58;22.82;;;;;;;-0.86;78.66;101934.77;1747810;80;25297;-80
2022/12/02 06:13:27;;;;;;;33.20;18.30;;;;;;;-0.87;78.80;101933.91;1768216;79;25887;-81
2022/12/02 06:15:55;;;;;;;31.85;20.17;;;;;;;-0.85;78.81;101935.13;1733945;81;26339;-80
2022/12/02 06:18:29;;;;;;;35.10;21.35;;;;;;;-0.87;78.63;101942.26;1726273;81;25904;-81
2022/12/02 06:20:59;;;;;;;40.43;22.87;;;;;;;-0.88;78.76;101932.69;1724907;81;27295;-81
2022/12/02 06:23:29;;;;;;;35.68;21.85;;;;;;;-0.90;78.67;101935.86;1730930;81;26678;-80
2022/12/02 06:25:56;;;;;;;43.03;23.67;;;;;;;-0.91;78.91;101935.01;1714235;80;26496;-81
2022/12/02 06:28:27;;;;;;;45.98;25.45;;;;;;;-0.88;79.13;101933.51;1732188;80;26275;-81
2022/12/02 06:31:23;;;;;;;56.88;28.83;;;;;;;-0.82;79.27;101941.56;1768739;80;25305;-81
2022/12/02 06:33:52;;;;;;;66.77;32.15;;;;;;;-0.79;79.32;101943.55;1755018;80;28711;-81
2022/12/02 06:36:25;;;;;;;55.30;33.13;;;;;;;-0.72;79.27;101944.53;1730915;81;26477;-81
2022/12/02 06:39:02;;;;;;;60.73;29.63;;;;;;;-0.71;79.13;101944.93;1730359;81;25608;-81
2022/12/02 06:41:32;;;;;;;53.38;27.35;;;;;;;-0.73;79.01;101948.97;1747505;81;25769;-81
2022/12/02 06:46:47;;;;;;;35.63;21.05;;;;;;;-0.81;78.92;101950.67;1763539;80;27472;-81
2022/12/02 06:49:21;;;;;;;41.58;24.67;;;;;;;-0.84;79.02;101953.48;1742691;81;25919;-81
2022/12/02 06:51:59;;;;;;;42.43;23.60;;;;;;;-0.85;79.14;101954.41;1741192;81;25802;-80
2022/12/02 06:54:29;;;;;;;45.28;23.73;;;;;;;-0.82;79.16;101948.14;1739190;81;26086;-81
2022/12/02 06:56:58;;;;;;;42.53;25.77;;;;;;;-0.81;79.29;101951.13;1739248;81;25785;-81
2022/12/02 06:59:26;;;;;;;45.58;24.47;;;;;;;-0.80;79.28;101950.22;1746518;81;27431;-80
2022/12/02 07:01:56;;;;;;;41.65;24.02;;;;;;;-0.79;79.30;101957.16;1746035;81;26515;-81
2022/12/02 07:04:45;;;;;;;35.70;21.50;;;;;;;-0.81;79.23;101962.52;1747175;81;25745;-81
2022/12/02 07:07:29;;;;;;;52.93;26.45;;;;;;;-0.80;79.20;101962.91;1749524;81;25776;-81
2022/12/02 07:10:00;;;;;;;44.48;24.25;;;;;;;-0.80;79.27;101959.42;1775910;80;25598;-82
2022/12/02 07:12:37;;;;;;;50.75;25.92;;;;;;;-0.82;78.97;101965.23;1772690;80;27045;-80
2022/12/02 07:15:28;;;;;;;47.03;23.92;;;;;;;-0.84;78.93;101957.89;1775204;80;26356;-81
2022/12/02 07:17:58;;;;;;;45.35;24.02;;;;;;;-0.86;78.74;101963.24;1762834;80;25926;-81
2022/12/02 07:20:37;;;;;;;39.10;20.20;;;;;;;-0.84;78.99;101962.70;1763591;80;25844;-81
2022/12/02 07:23:20;;;;;;;35.52;20.48;;;;;;;-0.83;78.75;101966.15;1737343;81;25888;-81
2022/12/02 07:25:52;;;;;;;42.03;20.77;;;;;;;-0.85;78.81;101969.33;1732761;80;27478;-81
2022/12/02 07:28:27;;;;;;;47.78;23.20;;;;;;;-0.85;78.70;101968.02;1715344;81;25841;-81
2022/12/02 07:30:58;;;;;;;41.15;22.10;;;;;;;-0.81;78.89;101969.55;1740297;80;26475;-81
2022/12/02 07:33:25;;;;;;;36.35;20.80;;;;;;;-0.79;78.82;101963.28;1758548;81;25937;-82
2022/12/02 07:35:51;;;;;;;35.15;19.82;;;;;;;-0.81;78.60;101973.03;1743665;80;25516;-81
2022/12/02 07:38:18;;;;;;;37.15;19.92;;;;;;;-0.85;78.32;101974.59;1769838;80;27447;-81
2022/12/02 07:40:44;;;;;;;37.78;19.73;;;;;;;-0.87;78.38;101969.88;1752463;79;25294;-81
2022/12/02 07:43:10;;;;;;;29.12;19.52;;;;;;;-0.92;78.15;101967.48;1743663;81;25839;-80
2022/12/02 07:45:37;;;;;;;45.23;22.02;;;;;;;-0.98;78.30;101977.47;1740976;81;25935;-83
2022/12/02 07:48:03;;;;;;;45.85;22.67;;;;;;;-0.97;79.11;101972.16;1741218;81;25896;-80
2022/12/02 07:50:30;;;;;;;94.37;49.27;;;;;;;-0.90;78.83;101968.74;1738878;82;27549;-81
2022/12/02 07:52:56;;;;;;;499.30;241.33;;;;;;;-0.91;78.54;101968.34;1747673;81;25981;-81
2022/12/02 07:55:22;;;;;;;124.25;79.20;;;;;;;-0.89;78.51;101967.34;1726843;82;25832;-81
2022/12/02 07:57:48;;;;;;;56.88;32.83;;;;;;;-0.87;78.39;101969.88;1751058;81;25941;-81
2022/12/02 08:00:16;;;;;;;87.10;58.50;;;;;;;-0.88;78.21;101974.77;1709272;83;25949;-81
2022/12/02 08:02:42;;;;;;;78.92;39.20;;;;;;;-0.88;78.14;101976.09;1734606;81;27457;-82
2022/12/02 08:05:10;;;;;;;48.13;26.65;;;;;;;-0.89;78.16;101974.37;1721841;83;25795;-82
2022/12/02 08:07:37;;;;;;;36.53;21.40;;;;;;;-0.86;78.26;101972.91;1716798;82;25817;-81
2022/12/02 08:10:05;;;;;;;38.85;20.17;;;;;;;-0.88;77.92;101978.22;1712710;82;25776;-81
2022/12/02 08:12:32;;;;;;;37.20;23.20;;;;;;;-0.92;77.94;101974.06;1718345;82;25914;-82
2022/12/02 08:14:58;;;;;;;40.52;24.30;;;;;;;-0.92;78.06;101970.11;1712321;82;27410;-81
2022/12/02 08:17:24;;;;;;;49.10;29.07;;;;;;;-0.90;78.09;101967.42;1711777;82;25744;-81
2022/12/02 08:19:50;;;;;;;45.98;27.98;;;;;;;-0.86;78.32;101965.02;1720970;82;26485;-82
2022/12/02 08:22:17;;;;;;;45.30;24.63;;;;;;;-0.83;78.22;101961.75;1708531;83;26363;-81
2022/12/02 08:24:43;;;;;;;46.58;26.90;;;;;;;-0.80;78.27;101960.28;1744242;80;25892;-80
2022/12/02 08:27:09;;;;;;;48.68;32.95;;;;;;;-0.80;78.05;101949.77;1742334;81;28158;-81
2022/12/02 08:29:36;;;;;;;44.45;29.52;;;;;;;-0.79;78.05;101959.79;1712943;82;25765;-80
2022/12/02 08:32:02;;;;;;;46.08;26.23;;;;;;;-0.82;77.99;101950.77;1740816;81;25841;-80
2022/12/02 08:34:28;;;;;;;45.83;26.48;;;;;;;-0.83;77.92;101953.86;1710371;82;25856;-81
2022/12/02 08:36:55;;;;;;;44.93;24.98;;;;;;;-0.81;77.98;101950.67;1740065;81;25934;-89
2022/12/02 08:39:21;;;;;;;38.67;22.05;;;;;;;-0.79;78.02;101950.59;1718376;83;27474;-87
2022/12/02 08:41:48;;;;;;;33.40;20.77;;;;;;;-0.79;77.95;101955.84;1722465;82;25854;-84
2022/12/02 08:44:17;;;;;;;33.48;21.07;;;;;;;-0.81;77.91;101954.63;1730919;82;25780;-85
2022/12/02 08:46:43;;;;;;;42.53;21.27;;;;;;;-0.77;77.93;101962.37;1711684;82;26272;-91
2022/12/02 08:49:11;;;;;;;50.63;25.20;;;;;;;-0.76;78.09;101958.33;1707745;81;25431;-85
2022/12/02 08:51:38;;;;;;;58.33;29.72;;;;;;;-0.75;77.79;101960.50;1739864;81;27465;-85
2022/12/02 08:54:04;;;;;;;76.47;35.45;;;;;;;-0.77;77.75;101959.73;1709790;82;25979;-87
2022/12/02 08:56:31;;;;;;;55.85;29.63;;;;;;;-0.75;77.88;101963.13;1680458;83;25790;-86
2022/12/02 08:58:57;;;;;;;42.73;23.90;;;;;;;-0.73;77.91;101960.81;1724242;80;25894;-83
2022/12/02 09:01:23;;;;;;;41.77;24.72;;;;;;;-0.69;77.77;101960.17;1726682;80;25418;-79
2022/12/02 09:03:49;;;;;;;41.63;24.10;;;;;;;-0.71;77.53;101960.26;1740116;80;28287;-82
2022/12/02 09:06:16;;;;;;;37.40;23.77;;;;;;;-0.59;80.11;101960.05;1744162;80;26381;-86
2022/12/02 09:08:42;;;;;;;43.05;26.27;;;;;;;-0.43;79.48;101959.16;1736589;81;25865;-88
2022/12/02 09:11:08;;;;;;;69.03;33.70;;;;;;;-0.37;78.57;101958.82;1750563;80;25856;-83
2022/12/02 09:13:35;;;;;;;79.97;48.17;;;;;;;-0.36;77.99;101953.92;1748062;81;25852;-81
2022/12/02 09:16:01;;;;;;;54.30;32.67;;;;;;;-0.34;78.93;101945.96;1728387;82;28685;-78
2022/12/02 09:18:27;;;;;;;81.63;46.05;;;;;;;-0.20;79.81;101948.20;1742932;81;26394;-79
2022/12/02 09:20:54;;;;;;;52.03;31.25;;;;;;;-0.09;78.66;101955.05;1726805;81;25289;-80
2022/12/02 09:23:20;;;;;;;63.75;35.88;;;;;;;-0.13;77.72;101949.55;1740867;81;26496;-80
2022/12/02 09:25:46;;;;;;;48.63;30.30;;;;;;;-0.13;77.63;101947.41;1741899;80;25962;-81
2022/12/02 09:28:12;;;;;;;35.90;22.17;;;;;;;-0.15;77.36;101950.59;1724444;81;28242;-84
2022/12/02 09:30:39;;;;;;;41.85;20.57;;;;;;;-0.16;77.44;101954.14;1710732;82;25808;-81
2022/12/02 09:33:05;;;;;;;35.28;20.57;;;;;;;-0.22;77.03;101955.34;1744395;81;25338;-80
2022/12/02 09:35:31;;;;;;;37.75;19.92;;;;;;;-0.30;76.80;101952.27;1737871;80;26262;-81
2022/12/02 09:37:58;;;;;;;40.05;22.13;;;;;;;-0.39;76.76;101947.53;1741574;81;25807;-80
2022/12/02 09:40:25;;;;;;;82.02;42.43;;;;;;;-0.47;76.77;101947.56;1736971;81;27428;-80
2022/12/02 09:42:51;;;;;;;38.15;21.05;;;;;;;-0.50;77.05;101949.89;1727971;81;26761;-81
2022/12/02 09:45:18;;;;;;;42.55;21.40;;;;;;;-0.56;76.81;101951.55;1731721;81;25851;-80
2022/12/02 09:47:45;;;;;;;43.87;26.35;;;;;;;-0.61;77.11;101950.94;1745567;80;25874;-80
2022/12/02 09:50:13;;;;;;;42.03;25.15;;;;;;;-0.60;77.48;101952.65;1733788;81;26374;-81
2022/12/02 09:52:40;;;;;;;47.50;25.32;;;;;;;-0.53;77.72;101955.31;1743252;80;27444;-79
2022/12/02 09:55:14;;;;;;;45.28;24.72;;;;;;;-0.47;77.62;101952.83;1737912;81;26408;-80
2022/12/02 09:57:41;;;;;;;43.80;24.18;;;;;;;-0.47;77.57;101948.88;1732136;81;25761;-80
2022/12/02 10:00:13;;;;;;;46.58;25.90;;;;;;;-0.45;77.67;101949.16;1733559;81;25697;-80
2022/12/02 10:02:43;;;;;;;58.80;31.87;;;;;;;-0.42;77.62;101944.19;1744276;81;25333;-80
2022/12/02 10:05:21;;;;;;;55.78;29.60;;;;;;;-0.45;77.60;101951.78;1733735;81;27484;-80
2022/12/02 10:07:49;;;;;;;48.48;27.22;;;;;;;-0.48;77.47;101947.16;1746186;80;25837;-80
2022/12/02 10:10:20;;;;;;;44.48;23.45;;;;;;;-0.51;77.20;101948.67;1763041;79;25661;-81
2022/12/02 10:12:47;;;;;;;43.35;23.92;;;;;;;-0.54;77.22;101952.31;1749570;80;25965;-81
2022/12/02 10:15:19;;;;;;;39.13;22.73;;;;;;;-0.58;77.23;101954.73;1769277;80;25798;-80
2022/12/02 10:17:46;;;;;;;44.00;24.55;;;;;;;-0.64;77.14;101947.63;1748821;81;27462;-80
2022/12/02 10:20:19;;;;;;;55.65;31.95;;;;;;;-0.65;77.38;101955.13;1745798;81;25325;-80
2022/12/02 10:23:11;;;;;;;43.80;23.83;;;;;;;-0.65;77.45;101951.17;1764008;79;25803;-80
2022/12/02 10:25:43;;;;;;;43.20;21.25;;;;;;;-0.65;77.38;101948.55;1747530;81;26644;-81
2022/12/02 10:28:27;;;;;;;36.58;20.85;;;;;;;-0.70;77.20;101950.10;1735105;81;26417;-84
2022/12/02 10:31:04;;;;;;;42.67;22.20;;;;;;;-0.79;76.89;101947.50;1732034;81;26587;-84
2022/12/02 10:33:35;;;;;;;48.73;24.75;;;;;;;-0.82;77.39;101942.88;1765602;80;26147;-83
2022/12/02 10:36:01;;;;;;;37.98;21.73;;;;;;;-0.80;77.60;101944.95;1728958;81;26008;-82
2022/12/02 10:38:43;;;;;;;39.40;23.10;;;;;;;-0.83;77.24;101940.70;1732556;81;25869;-87
2022/12/02 10:41:17;;;;;;;43.63;23.90;;;;;;;-0.92;77.15;101946.94;1746709;81;25907;-82
2022/12/02 10:44:01;;;;;;;36.08;20.85;;;;;;;-0.97;77.45;101943.23;1756461;79;27462;-80
2022/12/02 10:46:28;;;;;;;109.37;56.77;;;;;;;-0.98;77.45;101948.55;1740818;81;26321;-80
2022/12/02 10:48:55;;;;;;;77.32;41.05;;;;;;;-1.02;77.52;101947.01;1741475;81;25904;-80
2022/12/02 10:51:21;;;;;;;88.30;49.38;;;;;;;-1.02;77.73;101943.06;1758249;81;26408;-80
2022/12/02 10:53:51;;;;;;;217.07;109.55;;;;;;;-0.99;77.90;101938.52;1740558;81;26240;-81
2022/12/02 10:56:25;;;;;;;70.05;38.80;;;;;;;-0.96;77.78;101942.73;1728035;81;27442;-80
2022/12/02 10:58:54;;;;;;;97.10;47.88;;;;;;;-0.95;77.89;101938.73;1738325;81;26098;-87
2022/12/02 11:01:20;;;;;;;120.77;56.40;;;;;;;-0.91;78.13;101942.04;1739147;81;25956;-88
2022/12/02 11:03:48;;;;;;;131.55;62.90;;;;;;;-0.87;78.08;101944.89;1737516;81;25679;-87
2022/12/02 11:06:18;;;;;;;133.30;63.42;;;;;;;-0.85;77.97;101933.82;1750035;81;25890;-81
2022/12/02 11:08:46;;;;;;;140.77;66.87;;;;;;;-0.83;78.00;101931.95;1727219;81;28273;-81
2022/12/02 11:11:27;;;;;;;104.97;57.90;;;;;;;-0.85;77.79;101937.77;1742984;81;25728;-81
2022/12/02 11:14:04;;;;;;;69.17;39.65;;;;;;;-0.84;77.87;101933.76;1725367;81;25891;-81
2022/12/02 11:16:43;;;;;;;66.77;44.18;;;;;;;-0.82;78.07;101926.64;1765450;79;25471;-81
2022/12/02 11:19:29;;;;;;;54.48;32.38;;;;;;;-0.78;78.13;101937.83;1765926;79;25285;-80
2022/12/02 11:21:57;;;;;;;55.85;30.27;;;;;;;-0.77;78.06;101935.11;1757866;79;28434;-80
2022/12/02 11:24:29;;;;;;;49.63;27.02;;;;;;;-0.77;78.07;101930.34;1750301;81;26442;-80
2022/12/02 11:27:05;;;;;;;81.50;40.23;;;;;;;-0.78;77.87;101928.63;1749323;81;25756;-80